sensor_id;sensor_type;location;lat;lon;timestamp;P1;durP1;ratioP1;P2;durP2;ratioP2
63046;SDS011;62025;39.238;9.126;2023-05-21T00:00:22;7.90;;;2.45;;
63046;SDS011;62025;39.238;9.126;2023-05-21T00:02:48;10.35;;;2.40;;
63046;SDS011;62025;39.238;9.126;2023-05-21T00:05:15;7.97;;;2.80;;
63046;SDS011;62025;39.238;9.126;2023-05-21T00:07:42;8.60;;;2.60;;
63046;SDS011;62025;39.238;9.126;2023-05-21T00:10:10;5.60;;;2.47;;
63046;SDS011;62025;39.238;9.126;2023-05-21T00:12:36;7.55;;;2.08;;
63046;SDS011;62025;39.238;9.126;2023-05-21T00:15:02;9.88;;;3.10;;
63046;SDS011;62025;39.238;9.126;2023-05-21T00:17:28;9.55;;;2.92;;
63046;SDS011;62025;39.238;9.126;2023-05-21T00:19:54;12.70;;;3.08;;
63046;SDS011;62025;39.238;9.126;2023-05-21T00:22:24;13.02;;;2.90;;
63046;SDS011;62025;39.238;9.126;2023-05-21T00:24:50;12.15;;;4.05;;
63046;SDS011;62025;39.238;9.126;2023-05-21T00:27:16;6.68;;;2.60;;
63046;SDS011;62025;39.238;9.126;2023-05-21T00:29:42;6.60;;;2.60;;
63046;SDS011;62025;39.238;9.126;2023-05-21T00:32:08;8.93;;;2.90;;
63046;SDS011;62025;39.238;9.126;2023-05-21T00:34:34;8.88;;;2.50;;
63046;SDS011;62025;39.238;9.126;2023-05-21T00:37:01;7.05;;;2.50;;
63046;SDS011;62025;39.238;9.126;2023-05-21T00:39:27;9.32;;;2.92;;
63046;SDS011;62025;39.238;9.126;2023-05-21T00:41:53;9.45;;;3.15;;
63046;SDS011;62025;39.238;9.126;2023-05-21T00:44:21;9.82;;;3.38;;
63046;SDS011;62025;39.238;9.126;2023-05-21T00:46:48;9.13;;;3.72;;
63046;SDS011;62025;39.238;9.126;2023-05-21T00:49:18;7.63;;;2.88;;
63046;SDS011;62025;39.238;9.126;2023-05-21T00:51:48;13.40;;;3.67;;
63046;SDS011;62025;39.238;9.126;2023-05-21T00:54:16;9.05;;;2.92;;
63046;SDS011;62025;39.238;9.126;2023-05-21T00:56:43;11.18;;;3.00;;
63046;SDS011;62025;39.238;9.126;2023-05-21T00:59:09;10.27;;;2.90;;
63046;SDS011;62025;39.238;9.126;2023-05-21T01:01:36;9.40;;;3.28;;
63046;SDS011;62025;39.238;9.126;2023-05-21T01:04:02;6.97;;;2.92;;
63046;SDS011;62025;39.238;9.126;2023-05-21T01:06:28;8.68;;;2.90;;
63046;SDS011;62025;39.238;9.126;2023-05-21T01:08:59;6.88;;;2.92;;
63046;SDS011;62025;39.238;9.126;2023-05-21T01:11:32;6.70;;;2.60;;
63046;SDS011;62025;39.238;9.126;2023-05-21T01:14:04;12.52;;;3.22;;
63046;SDS011;62025;39.238;9.126;2023-05-21T01:16:35;8.52;;;2.88;;
63046;SDS011;62025;39.238;9.126;2023-05-21T01:19:03;9.00;;;3.20;;
63046;SDS011;62025;39.238;9.126;2023-05-21T01:21:32;7.28;;;3.00;;
63046;SDS011;62025;39.238;9.126;2023-05-21T01:24:02;9.63;;;3.30;;
63046;SDS011;62025;39.238;9.126;2023-05-21T01:26:30;5.95;;;2.75;;
63046;SDS011;62025;39.238;9.126;2023-05-21T01:28:57;7.53;;;2.70;;
63046;SDS011;62025;39.238;9.126;2023-05-21T01:31:27;8.77;;;3.22;;
63046;SDS011;62025;39.238;9.126;2023-05-21T01:34:05;9.73;;;2.95;;
63046;SDS011;62025;39.238;9.126;2023-05-21T01:36:37;7.68;;;3.10;;
63046;SDS011;62025;39.238;9.126;2023-05-21T01:39:14;5.75;;;2.80;;
63046;SDS011;62025;39.238;9.126;2023-05-21T01:41:53;7.03;;;3.22;;
63046;SDS011;62025;39.238;9.126;2023-05-21T01:44:22;7.75;;;3.40;;
63046;SDS011;62025;39.238;9.126;2023-05-21T01:46:51;5.50;;;3.20;;
63046;SDS011;62025;39.238;9.126;2023-05-21T01:49:18;9.63;;;3.75;;
63046;SDS011;62025;39.238;9.126;2023-05-21T01:51:46;7.80;;;3.20;;
63046;SDS011;62025;39.238;9.126;2023-05-21T01:54:13;8.63;;;3.28;;
63046;SDS011;62025;39.238;9.126;2023-05-21T01:56:40;6.78;;;3.08;;
63046;SDS011;62025;39.238;9.126;2023-05-21T01:59:06;5.20;;;2.90;;
63046;SDS011;62025;39.238;9.126;2023-05-21T02:01:33;8.25;;;3.10;;
63046;SDS011;62025;39.238;9.126;2023-05-21T02:03:59;8.95;;;3.35;;
63046;SDS011;62025;39.238;9.126;2023-05-21T02:06:25;5.03;;;3.25;;
63046;SDS011;62025;39.238;9.126;2023-05-21T02:08:51;8.40;;;3.22;;
63046;SDS011;62025;39.238;9.126;2023-05-21T02:11:18;6.30;;;3.20;;
63046;SDS011;62025;39.238;9.126;2023-05-21T02:13:44;6.78;;;3.15;;
63046;SDS011;62025;39.238;9.126;2023-05-21T02:16:10;8.68;;;3.03;;
63046;SDS011;62025;39.238;9.126;2023-05-21T02:18:42;6.97;;;3.55;;
63046;SDS011;62025;39.238;9.126;2023-05-21T02:21:08;4.57;;;2.75;;
63046;SDS011;62025;39.238;9.126;2023-05-21T02:23:35;7.85;;;3.00;;
63046;SDS011;62025;39.238;9.126;2023-05-21T02:26:02;4.93;;;2.67;;
63046;SDS011;62025;39.238;9.126;2023-05-21T02:28:28;4.20;;;2.35;;
63046;SDS011;62025;39.238;9.126;2023-05-21T02:30:55;7.00;;;2.50;;
63046;SDS011;62025;39.238;9.126;2023-05-21T02:33:21;5.10;;;2.28;;
63046;SDS011;62025;39.238;9.126;2023-05-21T02:35:47;6.00;;;2.50;;
63046;SDS011;62025;39.238;9.126;2023-05-21T02:38:13;6.40;;;2.70;;
63046;SDS011;62025;39.238;9.126;2023-05-21T02:40:46;5.75;;;2.45;;
63046;SDS011;62025;39.238;9.126;2023-05-21T02:43:14;3.95;;;2.30;;
63046;SDS011;62025;39.238;9.126;2023-05-21T02:45:40;6.78;;;2.30;;
63046;SDS011;62025;39.238;9.126;2023-05-21T02:48:07;7.13;;;2.50;;
63046;SDS011;62025;39.238;9.126;2023-05-21T02:50:37;7.13;;;1.90;;
63046;SDS011;62025;39.238;9.126;2023-05-21T02:53:04;5.28;;;1.85;;
63046;SDS011;62025;39.238;9.126;2023-05-21T02:55:31;5.70;;;2.50;;
63046;SDS011;62025;39.238;9.126;2023-05-21T02:57:57;5.00;;;1.98;;
63046;SDS011;62025;39.238;9.126;2023-05-21T03:00:23;4.15;;;1.98;;
63046;SDS011;62025;39.238;9.126;2023-05-21T03:02:49;5.13;;;2.05;;
63046;SDS011;62025;39.238;9.126;2023-05-21T03:05:15;4.15;;;1.52;;
63046;SDS011;62025;39.238;9.126;2023-05-21T03:07:41;4.20;;;1.75;;
63046;SDS011;62025;39.238;9.126;2023-05-21T03:10:08;4.80;;;2.03;;
63046;SDS011;62025;39.238;9.126;2023-05-21T03:12:35;5.18;;;2.10;;
63046;SDS011;62025;39.238;9.126;2023-05-21T03:15:01;5.60;;;2.20;;
63046;SDS011;62025;39.238;9.126;2023-05-21T03:17:27;4.63;;;1.90;;
63046;SDS011;62025;39.238;9.126;2023-05-21T03:19:52;4.25;;;1.80;;
63046;SDS011;62025;39.238;9.126;2023-05-21T03:22:18;2.92;;;2.00;;
63046;SDS011;62025;39.238;9.126;2023-05-21T03:24:45;9.02;;;1.95;;
63046;SDS011;62025;39.238;9.126;2023-05-21T03:27:12;5.60;;;2.10;;
63046;SDS011;62025;39.238;9.126;2023-05-21T03:29:38;3.75;;;2.10;;
63046;SDS011;62025;39.238;9.126;2023-05-21T03:32:05;6.75;;;2.08;;
63046;SDS011;62025;39.238;9.126;2023-05-21T03:34:32;5.45;;;2.42;;
63046;SDS011;62025;39.238;9.126;2023-05-21T03:36:59;6.00;;;2.40;;
63046;SDS011;62025;39.238;9.126;2023-05-21T03:39:26;5.65;;;2.30;;
63046;SDS011;62025;39.238;9.126;2023-05-21T03:41:53;6.20;;;2.20;;
63046;SDS011;62025;39.238;9.126;2023-05-21T03:44:32;7.60;;;2.70;;
63046;SDS011;62025;39.238;9.126;2023-05-21T03:47:14;5.65;;;2.15;;
63046;SDS011;62025;39.238;9.126;2023-05-21T03:49:41;6.20;;;2.30;;
63046;SDS011;62025;39.238;9.126;2023-05-21T03:52:07;5.25;;;2.63;;
63046;SDS011;62025;39.238;9.126;2023-05-21T03:54:33;5.35;;;3.20;;
63046;SDS011;62025;39.238;9.126;2023-05-21T03:57:03;6.13;;;2.70;;
63046;SDS011;62025;39.238;9.126;2023-05-21T03:59:31;6.13;;;2.70;;
63046;SDS011;62025;39.238;9.126;2023-05-21T04:01:57;7.78;;;2.53;;
63046;SDS011;62025;39.238;9.126;2023-05-21T04:04:24;6.88;;;2.83;;
63046;SDS011;62025;39.238;9.126;2023-05-21T04:06:50;6.50;;;2.70;;
63046;SDS011;62025;39.238;9.126;2023-05-21T04:09:20;9.45;;;2.90;;
63046;SDS011;62025;39.238;9.126;2023-05-21T04:11:46;4.82;;;2.95;;
63046;SDS011;62025;39.238;9.126;2023-05-21T04:14:12;9.60;;;3.47;;
63046;SDS011;62025;39.238;9.126;2023-05-21T04:16:38;8.20;;;3.47;;
63046;SDS011;62025;39.238;9.126;2023-05-21T04:19:08;5.28;;;3.50;;
63046;SDS011;62025;39.238;9.126;2023-05-21T04:21:34;8.45;;;3.28;;
63046;SDS011;62025;39.238;9.126;2023-05-21T04:24:01;10.00;;;3.35;;
63046;SDS011;62025;39.238;9.126;2023-05-21T04:26:54;7.85;;;3.38;;
63046;SDS011;62025;39.238;9.126;2023-05-21T04:29:21;7.57;;;3.72;;
63046;SDS011;62025;39.238;9.126;2023-05-21T04:31:48;6.18;;;3.25;;
63046;SDS011;62025;39.238;9.126;2023-05-21T04:34:15;7.25;;;3.15;;
63046;SDS011;62025;39.238;9.126;2023-05-21T04:36:42;6.20;;;3.50;;
63046;SDS011;62025;39.238;9.126;2023-05-21T04:39:12;7.03;;;3.03;;
63046;SDS011;62025;39.238;9.126;2023-05-21T04:41:39;7.63;;;3.47;;
63046;SDS011;62025;39.238;9.126;2023-05-21T04:44:06;8.80;;;3.13;;
63046;SDS011;62025;39.238;9.126;2023-05-21T04:46:33;9.55;;;3.00;;
63046;SDS011;62025;39.238;9.126;2023-05-21T04:49:00;7.28;;;3.15;;
63046;SDS011;62025;39.238;9.126;2023-05-21T04:51:29;6.18;;;3.20;;
63046;SDS011;62025;39.238;9.126;2023-05-21T04:53:56;5.88;;;3.00;;
63046;SDS011;62025;39.238;9.126;2023-05-21T04:56:23;5.88;;;3.38;;
63046;SDS011;62025;39.238;9.126;2023-05-21T04:58:52;7.85;;;3.78;;
63046;SDS011;62025;39.238;9.126;2023-05-21T05:01:19;6.43;;;3.45;;
63046;SDS011;62025;39.238;9.126;2023-05-21T05:06:14;10.57;;;3.60;;
63046;SDS011;62025;39.238;9.126;2023-05-21T05:08:40;11.48;;;3.35;;
63046;SDS011;62025;39.238;9.126;2023-05-21T05:11:06;7.82;;;3.25;;
63046;SDS011;62025;39.238;9.126;2023-05-21T05:13:33;5.93;;;3.38;;
63046;SDS011;62025;39.238;9.126;2023-05-21T05:15:59;11.07;;;3.95;;
63046;SDS011;62025;39.238;9.126;2023-05-21T05:18:26;5.68;;;2.78;;
63046;SDS011;62025;39.238;9.126;2023-05-21T05:20:53;7.93;;;3.08;;
63046;SDS011;62025;39.238;9.126;2023-05-21T05:23:19;7.63;;;2.83;;
63046;SDS011;62025;39.238;9.126;2023-05-21T05:25:45;5.28;;;2.40;;
63046;SDS011;62025;39.238;9.126;2023-05-21T05:28:12;6.88;;;2.53;;
63046;SDS011;62025;39.238;9.126;2023-05-21T05:30:38;8.25;;;2.75;;
63046;SDS011;62025;39.238;9.126;2023-05-21T05:33:20;6.13;;;2.80;;
63046;SDS011;62025;39.238;9.126;2023-05-21T05:35:46;7.88;;;3.55;;
63046;SDS011;62025;39.238;9.126;2023-05-21T05:38:12;6.38;;;2.63;;
63046;SDS011;62025;39.238;9.126;2023-05-21T05:40:38;6.28;;;2.53;;
63046;SDS011;62025;39.238;9.126;2023-05-21T05:43:04;5.78;;;2.33;;
63046;SDS011;62025;39.238;9.126;2023-05-21T05:45:31;6.65;;;2.17;;
63046;SDS011;62025;39.238;9.126;2023-05-21T05:47:57;3.42;;;2.05;;
63046;SDS011;62025;39.238;9.126;2023-05-21T05:50:24;4.53;;;2.22;;
63046;SDS011;62025;39.238;9.126;2023-05-21T05:52:50;6.63;;;2.25;;
63046;SDS011;62025;39.238;9.126;2023-05-21T05:55:16;3.30;;;1.70;;
63046;SDS011;62025;39.238;9.126;2023-05-21T05:57:42;3.83;;;2.03;;
63046;SDS011;62025;39.238;9.126;2023-05-21T06:00:12;6.25;;;2.10;;
63046;SDS011;62025;39.238;9.126;2023-05-21T06:02:41;7.65;;;1.98;;
63046;SDS011;62025;39.238;9.126;2023-05-21T06:05:07;4.70;;;2.13;;
63046;SDS011;62025;39.238;9.126;2023-05-21T06:07:38;10.88;;;2.78;;
63046;SDS011;62025;39.238;9.126;2023-05-21T06:10:05;3.80;;;2.20;;
63046;SDS011;62025;39.238;9.126;2023-05-21T06:12:32;4.07;;;2.33;;
63046;SDS011;62025;39.238;9.126;2023-05-21T06:14:58;4.72;;;2.13;;
63046;SDS011;62025;39.238;9.126;2023-05-21T06:17:25;8.55;;;2.40;;
63046;SDS011;62025;39.238;9.126;2023-05-21T06:19:51;8.30;;;2.40;;
63046;SDS011;62025;39.238;9.126;2023-05-21T06:22:18;7.55;;;2.55;;
63046;SDS011;62025;39.238;9.126;2023-05-21T06:24:44;4.30;;;2.42;;
63046;SDS011;62025;39.238;9.126;2023-05-21T06:27:10;4.57;;;2.20;;
63046;SDS011;62025;39.238;9.126;2023-05-21T06:29:37;7.35;;;1.85;;
63046;SDS011;62025;39.238;9.126;2023-05-21T06:34:32;8.00;;;2.53;;
63046;SDS011;62025;39.238;9.126;2023-05-21T06:36:58;6.25;;;2.30;;
63046;SDS011;62025;39.238;9.126;2023-05-21T06:39:25;6.00;;;2.00;;
63046;SDS011;62025;39.238;9.126;2023-05-21T06:41:52;6.40;;;2.20;;
63046;SDS011;62025;39.238;9.126;2023-05-21T06:44:37;9.65;;;3.50;;
63046;SDS011;62025;39.238;9.126;2023-05-21T06:47:14;9.50;;;2.60;;
63046;SDS011;62025;39.238;9.126;2023-05-21T06:49:40;3.55;;;2.22;;
63046;SDS011;62025;39.238;9.126;2023-05-21T06:52:06;6.25;;;2.80;;
63046;SDS011;62025;39.238;9.126;2023-05-21T06:54:32;6.85;;;2.40;;
63046;SDS011;62025;39.238;9.126;2023-05-21T06:56:59;7.38;;;2.53;;
63046;SDS011;62025;39.238;9.126;2023-05-21T06:59:25;4.05;;;2.03;;
63046;SDS011;62025;39.238;9.126;2023-05-21T07:01:52;4.40;;;2.50;;
63046;SDS011;62025;39.238;9.126;2023-05-21T07:04:18;5.70;;;2.38;;
63046;SDS011;62025;39.238;9.126;2023-05-21T07:06:54;5.70;;;2.15;;
63046;SDS011;62025;39.238;9.126;2023-05-21T07:09:21;4.90;;;2.50;;
63046;SDS011;62025;39.238;9.126;2023-05-21T07:11:48;4.63;;;2.63;;
63046;SDS011;62025;39.238;9.126;2023-05-21T07:14:15;4.43;;;2.22;;
63046;SDS011;62025;39.238;9.126;2023-05-21T07:16:41;4.40;;;2.03;;
63046;SDS011;62025;39.238;9.126;2023-05-21T07:19:07;7.43;;;2.38;;
63046;SDS011;62025;39.238;9.126;2023-05-21T07:21:33;3.67;;;2.10;;
63046;SDS011;62025;39.238;9.126;2023-05-21T07:24:00;3.13;;;1.95;;
63046;SDS011;62025;39.238;9.126;2023-05-21T07:26:26;3.78;;;1.90;;
63046;SDS011;62025;39.238;9.126;2023-05-21T07:28:52;5.38;;;1.70;;
63046;SDS011;62025;39.238;9.126;2023-05-21T07:31:18;6.13;;;2.00;;
63046;SDS011;62025;39.238;9.126;2023-05-21T07:33:48;3.03;;;1.70;;
63046;SDS011;62025;39.238;9.126;2023-05-21T07:36:16;3.55;;;1.73;;
63046;SDS011;62025;39.238;9.126;2023-05-21T07:38:43;4.60;;;1.88;;
63046;SDS011;62025;39.238;9.126;2023-05-21T07:41:09;3.05;;;1.48;;
63046;SDS011;62025;39.238;9.126;2023-05-21T07:43:35;4.43;;;1.70;;
63046;SDS011;62025;39.238;9.126;2023-05-21T07:46:02;5.97;;;2.42;;
63046;SDS011;62025;39.238;9.126;2023-05-21T07:48:29;6.30;;;1.80;;
63046;SDS011;62025;39.238;9.126;2023-05-21T07:50:58;4.38;;;1.70;;
63046;SDS011;62025;39.238;9.126;2023-05-21T07:53:26;3.42;;;1.80;;
63046;SDS011;62025;39.238;9.126;2023-05-21T07:55:54;4.28;;;1.58;;
63046;SDS011;62025;39.238;9.126;2023-05-21T07:58:23;4.28;;;1.63;;
63046;SDS011;62025;39.238;9.126;2023-05-21T08:00:50;3.70;;;2.17;;
63046;SDS011;62025;39.238;9.126;2023-05-21T08:03:16;4.55;;;1.88;;
63046;SDS011;62025;39.238;9.126;2023-05-21T08:05:44;5.43;;;1.90;;
63046;SDS011;62025;39.238;9.126;2023-05-21T08:08:16;8.48;;;1.77;;
63046;SDS011;62025;39.238;9.126;2023-05-21T08:10:44;5.45;;;1.75;;
63046;SDS011;62025;39.238;9.126;2023-05-21T08:13:11;4.80;;;2.55;;
63046;SDS011;62025;39.238;9.126;2023-05-21T08:15:38;5.53;;;1.85;;
63046;SDS011;62025;39.238;9.126;2023-05-21T08:18:04;3.17;;;1.77;;
63046;SDS011;62025;39.238;9.126;2023-05-21T08:20:32;4.85;;;2.00;;
63046;SDS011;62025;39.238;9.126;2023-05-21T08:22:59;6.65;;;1.60;;
63046;SDS011;62025;39.238;9.126;2023-05-21T08:27:55;7.40;;;1.70;;
63046;SDS011;62025;39.238;9.126;2023-05-21T08:30:21;3.97;;;1.50;;
63046;SDS011;62025;39.238;9.126;2023-05-21T08:32:47;5.20;;;2.17;;
63046;SDS011;62025;39.238;9.126;2023-05-21T08:35:16;5.20;;;1.92;;
63046;SDS011;62025;39.238;9.126;2023-05-21T08:37:54;2.90;;;1.80;;
63046;SDS011;62025;39.238;9.126;2023-05-21T08:40:40;2.95;;;1.70;;
63046;SDS011;62025;39.238;9.126;2023-05-21T08:43:07;8.57;;;2.20;;
63046;SDS011;62025;39.238;9.126;2023-05-21T08:45:41;5.93;;;2.50;;
63046;SDS011;62025;39.238;9.126;2023-05-21T08:48:11;2.20;;;1.90;;
63046;SDS011;62025;39.238;9.126;2023-05-21T08:50:42;7.25;;;2.47;;
63046;SDS011;62025;39.238;9.126;2023-05-21T08:53:15;4.15;;;2.30;;
63046;SDS011;62025;39.238;9.126;2023-05-21T08:55:41;3.10;;;2.03;;
63046;SDS011;62025;39.238;9.126;2023-05-21T08:58:09;4.65;;;2.38;;
63046;SDS011;62025;39.238;9.126;2023-05-21T09:00:37;6.60;;;2.67;;
63046;SDS011;62025;39.238;9.126;2023-05-21T09:03:04;5.22;;;2.38;;
63046;SDS011;62025;39.238;9.126;2023-05-21T09:05:33;7.28;;;2.70;;
63046;SDS011;62025;39.238;9.126;2023-05-21T09:11:02;7.65;;;2.05;;
63046;SDS011;62025;39.238;9.126;2023-05-21T09:13:33;6.72;;;2.42;;
63046;SDS011;62025;39.238;9.126;2023-05-21T09:16:06;6.07;;;2.28;;
63046;SDS011;62025;39.238;9.126;2023-05-21T09:18:34;6.30;;;2.50;;
63046;SDS011;62025;39.238;9.126;2023-05-21T09:21:27;5.28;;;2.45;;
63046;SDS011;62025;39.238;9.126;2023-05-21T09:24:18;6.63;;;2.17;;
63046;SDS011;62025;39.238;9.126;2023-05-21T09:26:50;7.00;;;2.58;;
63046;SDS011;62025;39.238;9.126;2023-05-21T09:29:17;5.78;;;2.13;;
63046;SDS011;62025;39.238;9.126;2023-05-21T09:31:43;9.40;;;2.55;;
63046;SDS011;62025;39.238;9.126;2023-05-21T09:34:11;12.98;;;2.22;;
63046;SDS011;62025;39.238;9.126;2023-05-21T09:36:39;8.18;;;2.20;;
63046;SDS011;62025;39.238;9.126;2023-05-21T09:39:05;4.40;;;1.98;;
63046;SDS011;62025;39.238;9.126;2023-05-21T09:41:32;5.43;;;2.20;;
63046;SDS011;62025;39.238;9.126;2023-05-21T09:44:03;8.85;;;2.97;;
63046;SDS011;62025;39.238;9.126;2023-05-21T09:46:40;3.85;;;2.47;;
63046;SDS011;62025;39.238;9.126;2023-05-21T09:49:20;3.88;;;2.00;;
63046;SDS011;62025;39.238;9.126;2023-05-21T09:51:49;9.23;;;2.53;;
63046;SDS011;62025;39.238;9.126;2023-05-21T09:54:19;7.35;;;2.03;;
63046;SDS011;62025;39.238;9.126;2023-05-21T09:59:16;5.10;;;1.92;;
63046;SDS011;62025;39.238;9.126;2023-05-21T10:01:42;5.18;;;1.90;;
63046;SDS011;62025;39.238;9.126;2023-05-21T10:04:09;7.03;;;2.53;;
63046;SDS011;62025;39.238;9.126;2023-05-21T10:06:37;8.27;;;3.25;;
63046;SDS011;62025;39.238;9.126;2023-05-21T10:09:13;5.20;;;2.08;;
63046;SDS011;62025;39.238;9.126;2023-05-21T10:11:43;8.32;;;2.10;;
63046;SDS011;62025;39.238;9.126;2023-05-21T10:14:13;5.75;;;1.88;;
63046;SDS011;62025;39.238;9.126;2023-05-21T10:16:44;3.97;;;2.00;;
63046;SDS011;62025;39.238;9.126;2023-05-21T10:19:11;2.65;;;1.80;;
63046;SDS011;62025;39.238;9.126;2023-05-21T10:21:38;4.70;;;1.75;;
63046;SDS011;62025;39.238;9.126;2023-05-21T10:24:07;4.63;;;1.77;;
63046;SDS011;62025;39.238;9.126;2023-05-21T10:26:35;5.30;;;1.73;;
63046;SDS011;62025;39.238;9.126;2023-05-21T10:29:02;3.35;;;1.70;;
63046;SDS011;62025;39.238;9.126;2023-05-21T10:31:28;4.20;;;2.15;;
63046;SDS011;62025;39.238;9.126;2023-05-21T10:33:55;3.17;;;1.83;;
63046;SDS011;62025;39.238;9.126;2023-05-21T10:36:22;7.60;;;3.03;;
63046;SDS011;62025;39.238;9.126;2023-05-21T10:38:51;6.18;;;2.13;;
63046;SDS011;62025;39.238;9.126;2023-05-21T10:41:18;5.20;;;2.60;;
63046;SDS011;62025;39.238;9.126;2023-05-21T10:43:47;3.22;;;2.05;;
63046;SDS011;62025;39.238;9.126;2023-05-21T10:49:12;6.68;;;2.20;;
63046;SDS011;62025;39.238;9.126;2023-05-21T10:55:30;4.32;;;2.20;;
63046;SDS011;62025;39.238;9.126;2023-05-21T11:01:30;6.55;;;2.65;;
63046;SDS011;62025;39.238;9.126;2023-05-21T11:03:59;4.38;;;2.55;;
63046;SDS011;62025;39.238;9.126;2023-05-21T11:06:26;6.57;;;2.40;;
63046;SDS011;62025;39.238;9.126;2023-05-21T11:08:52;6.72;;;2.90;;
63046;SDS011;62025;39.238;9.126;2023-05-21T11:11:53;5.03;;;2.70;;
63046;SDS011;62025;39.238;9.126;2023-05-21T11:14:24;6.28;;;2.80;;
63046;SDS011;62025;39.238;9.126;2023-05-21T11:16:59;5.45;;;3.03;;
63046;SDS011;62025;39.238;9.126;2023-05-21T11:22:23;8.70;;;3.05;;
63046;SDS011;62025;39.238;9.126;2023-05-21T11:24:51;10.75;;;3.20;;
63046;SDS011;62025;39.238;9.126;2023-05-21T11:27:37;6.53;;;3.00;;
63046;SDS011;62025;39.238;9.126;2023-05-21T11:30:16;7.22;;;2.67;;
63046;SDS011;62025;39.238;9.126;2023-05-21T11:38:38;6.93;;;2.30;;
63046;SDS011;62025;39.238;9.126;2023-05-21T11:41:04;9.93;;;3.00;;
63046;SDS011;62025;39.238;9.126;2023-05-21T11:43:30;6.70;;;2.95;;
63046;SDS011;62025;39.238;9.126;2023-05-21T11:45:56;7.50;;;2.38;;
63046;SDS011;62025;39.238;9.126;2023-05-21T11:48:23;9.52;;;2.30;;
63046;SDS011;62025;39.238;9.126;2023-05-21T11:50:49;9.65;;;2.30;;
63046;SDS011;62025;39.238;9.126;2023-05-21T11:53:15;4.53;;;2.22;;
63046;SDS011;62025;39.238;9.126;2023-05-21T11:55:41;9.40;;;2.75;;
63046;SDS011;62025;39.238;9.126;2023-05-21T11:58:12;7.50;;;2.33;;
63046;SDS011;62025;39.238;9.126;2023-05-21T12:00:39;9.85;;;3.97;;
63046;SDS011;62025;39.238;9.126;2023-05-21T12:03:05;7.88;;;3.20;;
63046;SDS011;62025;39.238;9.126;2023-05-21T12:05:47;10.32;;;2.60;;
63046;SDS011;62025;39.238;9.126;2023-05-21T12:08:20;9.38;;;2.38;;
63046;SDS011;62025;39.238;9.126;2023-05-21T12:10:57;6.85;;;2.60;;
63046;SDS011;62025;39.238;9.126;2023-05-21T12:13:24;8.10;;;2.63;;
63046;SDS011;62025;39.238;9.126;2023-05-21T12:15:51;8.85;;;2.40;;
63046;SDS011;62025;39.238;9.126;2023-05-21T12:18:18;5.78;;;1.88;;
63046;SDS011;62025;39.238;9.126;2023-05-21T12:20:45;7.78;;;1.92;;
63046;SDS011;62025;39.238;9.126;2023-05-21T12:23:24;10.90;;;1.90;;
63046;SDS011;62025;39.238;9.126;2023-05-21T12:25:50;6.35;;;1.83;;
63046;SDS011;62025;39.238;9.126;2023-05-21T12:28:18;6.70;;;2.13;;
63046;SDS011;62025;39.238;9.126;2023-05-21T12:30:46;7.13;;;2.17;;
63046;SDS011;62025;39.238;9.126;2023-05-21T12:33:12;6.28;;;1.83;;
63046;SDS011;62025;39.238;9.126;2023-05-21T12:35:38;8.75;;;2.55;;
63046;SDS011;62025;39.238;9.126;2023-05-21T12:38:05;5.80;;;1.70;;
63046;SDS011;62025;39.238;9.126;2023-05-21T12:40:34;9.93;;;1.77;;
63046;SDS011;62025;39.238;9.126;2023-05-21T12:43:01;8.75;;;1.98;;
63046;SDS011;62025;39.238;9.126;2023-05-21T12:45:29;5.45;;;2.42;;
63046;SDS011;62025;39.238;9.126;2023-05-21T12:48:01;7.75;;;1.98;;
63046;SDS011;62025;39.238;9.126;2023-05-21T12:50:27;9.20;;;2.08;;
63046;SDS011;62025;39.238;9.126;2023-05-21T12:52:53;9.27;;;2.25;;
63046;SDS011;62025;39.238;9.126;2023-05-21T12:55:24;7.55;;;2.00;;
63046;SDS011;62025;39.238;9.126;2023-05-21T12:57:58;7.85;;;2.08;;
63046;SDS011;62025;39.238;9.126;2023-05-21T13:00:37;9.48;;;2.58;;
63046;SDS011;62025;39.238;9.126;2023-05-21T13:03:07;12.13;;;2.88;;
63046;SDS011;62025;39.238;9.126;2023-05-21T13:05:33;4.07;;;1.50;;
63046;SDS011;62025;39.238;9.126;2023-05-21T13:07:59;6.18;;;2.20;;
63046;SDS011;62025;39.238;9.126;2023-05-21T13:10:25;5.82;;;2.35;;
63046;SDS011;62025;39.238;9.126;2023-05-21T13:12:51;8.57;;;2.08;;
63046;SDS011;62025;39.238;9.126;2023-05-21T13:15:17;10.65;;;2.30;;
63046;SDS011;62025;39.238;9.126;2023-05-21T13:17:43;5.38;;;1.95;;
63046;SDS011;62025;39.238;9.126;2023-05-21T13:20:10;6.40;;;1.90;;
63046;SDS011;62025;39.238;9.126;2023-05-21T13:22:43;3.70;;;2.10;;
63046;SDS011;62025;39.238;9.126;2023-05-21T13:25:11;8.75;;;2.20;;
63046;SDS011;62025;39.238;9.126;2023-05-21T13:27:44;4.97;;;2.13;;
63046;SDS011;62025;39.238;9.126;2023-05-21T13:30:12;6.23;;;2.20;;
63046;SDS011;62025;39.238;9.126;2023-05-21T13:32:39;6.65;;;1.90;;
63046;SDS011;62025;39.238;9.126;2023-05-21T13:35:06;9.20;;;2.13;;
63046;SDS011;62025;39.238;9.126;2023-05-21T13:37:34;9.20;;;2.15;;
63046;SDS011;62025;39.238;9.126;2023-05-21T13:40:01;9.02;;;2.53;;
63046;SDS011;62025;39.238;9.126;2023-05-21T13:42:34;7.22;;;2.00;;
63046;SDS011;62025;39.238;9.126;2023-05-21T13:45:03;7.15;;;2.33;;
63046;SDS011;62025;39.238;9.126;2023-05-21T13:47:30;7.10;;;2.10;;
63046;SDS011;62025;39.238;9.126;2023-05-21T13:49:57;6.47;;;2.20;;
63046;SDS011;62025;39.238;9.126;2023-05-21T13:52:23;9.32;;;2.22;;
63046;SDS011;62025;39.238;9.126;2023-05-21T13:54:49;7.88;;;2.30;;
63046;SDS011;62025;39.238;9.126;2023-05-21T13:57:15;7.55;;;2.20;;
63046;SDS011;62025;39.238;9.126;2023-05-21T13:59:41;6.93;;;2.35;;
63046;SDS011;62025;39.238;9.126;2023-05-21T14:02:07;9.23;;;2.53;;
63046;SDS011;62025;39.238;9.126;2023-05-21T14:04:34;12.88;;;2.05;;
63046;SDS011;62025;39.238;9.126;2023-05-21T14:07:01;8.52;;;2.53;;
63046;SDS011;62025;39.238;9.126;2023-05-21T14:09:28;5.80;;;2.30;;
63046;SDS011;62025;39.238;9.126;2023-05-21T14:11:55;5.53;;;2.20;;
63046;SDS011;62025;39.238;9.126;2023-05-21T14:14:22;7.15;;;2.13;;
63046;SDS011;62025;39.238;9.126;2023-05-21T14:16:49;7.88;;;2.25;;
63046;SDS011;62025;39.238;9.126;2023-05-21T14:19:16;9.15;;;3.05;;
63046;SDS011;62025;39.238;9.126;2023-05-21T14:21:42;6.05;;;2.00;;
63046;SDS011;62025;39.238;9.126;2023-05-21T14:24:08;10.40;;;1.92;;
63046;SDS011;62025;39.238;9.126;2023-05-21T14:26:36;9.50;;;2.28;;
63046;SDS011;62025;39.238;9.126;2023-05-21T14:29:05;7.55;;;2.10;;
63046;SDS011;62025;39.238;9.126;2023-05-21T14:31:31;9.57;;;2.30;;
63046;SDS011;62025;39.238;9.126;2023-05-21T14:33:57;8.43;;;2.30;;
63046;SDS011;62025;39.238;9.126;2023-05-21T14:36:23;6.63;;;2.58;;
63046;SDS011;62025;39.238;9.126;2023-05-21T14:38:49;7.57;;;2.30;;
63046;SDS011;62025;39.238;9.126;2023-05-21T14:41:15;8.70;;;2.35;;
63046;SDS011;62025;39.238;9.126;2023-05-21T14:43:41;5.93;;;2.05;;
63046;SDS011;62025;39.238;9.126;2023-05-21T14:46:07;7.70;;;2.00;;
63046;SDS011;62025;39.238;9.126;2023-05-21T14:48:33;8.25;;;2.15;;
63046;SDS011;62025;39.238;9.126;2023-05-21T14:50:59;7.10;;;2.22;;
63046;SDS011;62025;39.238;9.126;2023-05-21T14:53:25;5.32;;;2.45;;
63046;SDS011;62025;39.238;9.126;2023-05-21T14:55:50;8.88;;;2.28;;
63046;SDS011;62025;39.238;9.126;2023-05-21T14:58:18;6.45;;;1.90;;
63046;SDS011;62025;39.238;9.126;2023-05-21T15:00:44;7.10;;;2.13;;
63046;SDS011;62025;39.238;9.126;2023-05-21T15:03:10;11.10;;;2.83;;
63046;SDS011;62025;39.238;9.126;2023-05-21T15:05:36;10.10;;;2.40;;
63046;SDS011;62025;39.238;9.126;2023-05-21T15:08:03;8.40;;;3.05;;
63046;SDS011;62025;39.238;9.126;2023-05-21T15:10:30;9.77;;;2.40;;
63046;SDS011;62025;39.238;9.126;2023-05-21T15:12:56;9.45;;;2.17;;
63046;SDS011;62025;39.238;9.126;2023-05-21T15:15:21;5.35;;;1.92;;
63046;SDS011;62025;39.238;9.126;2023-05-21T15:17:48;4.40;;;1.80;;
63046;SDS011;62025;39.238;9.126;2023-05-21T15:20:14;21.63;;;3.83;;
63046;SDS011;62025;39.238;9.126;2023-05-21T15:22:41;7.65;;;2.20;;
63046;SDS011;62025;39.238;9.126;2023-05-21T15:25:07;7.00;;;2.28;;